Flugplatz Giengen/Brenz (EDNG)

Hier findest Du alle Informationen zum Flugplatz Giengen/Brenz (EDNG).

Informationen für Piloten zum Flugplatz Giengen/Brenz

Hier findest Du alle relevanten Informationen, die Du als Pilot benötigst, um Giengen/Brenz anzufliegen.

Flugplatz: Giengen/Brenz ICAO-Code: EDNG
Frequenz Turm: 122,355 Mhz GAFOR Gebiet: 62
Frequenz Ground: 122,355 Mhz Mogas: ja
Platzrunde: W 2600 ft Landegebühr: -
Platzhöhe: 1.694 ft Sunrise: 03:31 Uhr UTC
Pisten: 17/35 - 480 m x 15 m, ASPH Sunset: 19:18 Uhr UTC

Mitglieder, die in Giengen/Brenz fliegen

Flugwetter am Flugplatz Giengen/Brenz

Die METAR Information stammen aus EDMA (57.66 km entfernt).

METAR Code:
2024/06/30 13:50
EDMA 301350Z 22013KT 9999 FEW037 25/17 Q1010

Flugschulen am Flugplatz Giengen/Brenz

Am Flugplatz Giengen/Brenz gibt es eine Flugschule.

Benachbarte Flugplätze und Flugschulen

Es gibt 23 weitere Flugplätze in einem Umkreis von 50 km um den Flugplatz Giengen/Brenz.

Jetzt anmelden

Passwort vergessen

Umfrage Archiv

Wie häufig haltet Ihr die Halbkreisflugregel ein?

Eher häufig!
36.4 %
Immer!
30.2 %
Hin und wieder!
17.1 %
Nie!
9.5 %
Eher selten!
6.9 %
Stimmen: 275 | Diskussion
Anzeige: Roland Aircraft
Statistik Alle Mitglieder

Aktuell sind 33 Besucher online, davon 1 Mitglied und 32 Gäste.


Mitglieder online:
IMei 

Anzeige: EasyVFR